createdAt,value
2019-04-19T00:01:00.601Z,7.32
2019-04-19T00:02:01.373Z,7.35
2019-04-19T00:02:54.695Z,7.35
2019-04-19T00:03:57.276Z,7.27
2019-04-19T00:04:57.309Z,7.24
2019-04-19T00:05:54.315Z,7.15
2019-04-19T00:07:01.962Z,7.15
2019-04-19T00:08:12.494Z,7.15
2019-04-19T00:09:12.206Z,7.20
2019-04-19T00:10:00.766Z,7.15
2019-04-19T00:11:01.907Z,7.16
2019-04-19T00:12:06.831Z,7.24
2019-04-19T00:12:59.502Z,7.23
2019-04-19T00:13:54.087Z,7.20
2019-04-19T00:14:54.853Z,7.15
2019-04-19T00:15:54.056Z,7.09
2019-04-19T00:16:54.000Z,7.07
2019-04-19T00:18:03.088Z,7.05
2019-04-19T00:19:18.406Z,7.05
2019-04-19T00:20:18.132Z,6.95
2019-04-19T00:21:12.479Z,6.92
2019-04-19T00:22:13.299Z,6.92
2019-04-19T00:23:04.293Z,6.98
2019-04-19T00:23:56.154Z,6.81
2019-04-19T00:24:54.423Z,6.89
2019-04-19T00:25:53.751Z,6.89
2019-04-19T00:26:54.864Z,6.81
2019-04-19T00:27:58.256Z,6.89
2019-04-19T00:28:58.328Z,6.88
2019-04-19T00:29:59.510Z,6.88
2019-04-19T00:31:10.977Z,6.85
2019-04-19T00:32:12.466Z,6.87
2019-04-19T00:33:04.595Z,6.81
2019-04-19T00:33:55.963Z,6.76
2019-04-19T00:34:54.593Z,6.73
2019-04-19T00:35:53.802Z,6.76
2019-04-19T00:36:53.429Z,6.76
2019-04-19T00:38:01.570Z,6.61
2019-04-19T00:39:12.038Z,6.56
2019-04-19T00:40:12.717Z,6.52
2019-04-19T00:41:14.185Z,6.54
2019-04-19T00:42:10.619Z,6.48
2019-04-19T00:43:03.763Z,6.41
2019-04-19T00:44:09.168Z,6.46
2019-04-19T00:45:15.215Z,6.46
2019-04-19T00:46:14.319Z,6.38
2019-04-19T00:47:17.768Z,6.28
2019-04-19T00:48:06.194Z,6.33
2019-04-19T00:49:02.911Z,6.21
2019-04-19T00:50:07.238Z,6.25
2019-04-19T00:51:04.122Z,6.14
2019-04-19T00:52:05.516Z,6.21
2019-04-19T00:53:07.588Z,6.19
2019-04-19T00:54:04.985Z,6.25
2019-04-19T00:55:03.632Z,6.19
2019-04-19T00:56:03.883Z,6.17
2019-04-19T00:56:59.636Z,6.14
2019-04-19T00:57:59.888Z,6.11
2019-04-19T00:59:00.221Z,6.06
2019-04-19T00:59:54.876Z,6.00
2019-04-19T01:00:52.857Z,6.00
2019-04-19T01:01:57.641Z,5.96
2019-04-19T01:02:56.377Z,5.94
2019-04-19T01:03:53.950Z,5.82
2019-04-19T01:04:59.338Z,5.89
2019-04-19T01:06:00.688Z,5.85
2019-04-19T01:06:58.525Z,5.81
2019-04-19T01:07:53.654Z,5.78
2019-04-19T01:09:01.201Z,5.71
2019-04-19T01:10:11.829Z,5.74
2019-04-19T01:11:07.854Z,5.71
2019-04-19T01:12:06.922Z,5.83
2019-04-19T01:13:06.927Z,5.74
2019-04-19T01:14:07.322Z,5.75
2019-04-19T01:15:06.943Z,5.82
2019-04-19T01:16:06.002Z,5.82
2019-04-19T01:17:07.491Z,5.85
2019-04-19T01:18:10.117Z,5.85
2019-04-19T01:19:00.687Z,5.90
2019-04-19T01:19:58.730Z,5.82
2019-04-19T01:20:52.346Z,5.83
2019-04-19T01:21:53.338Z,5.74
2019-04-19T01:22:58.555Z,5.72
2019-04-19T01:23:56.605Z,5.64
2019-04-19T01:24:52.875Z,5.64
2019-04-19T01:25:57.601Z,5.63
2019-04-19T01:26:54.714Z,5.65
2019-04-19T01:27:53.059Z,5.56
2019-04-19T01:28:58.846Z,5.51
2019-04-19T01:29:55.142Z,5.45
2019-04-19T01:30:52.374Z,5.49
2019-04-19T01:32:00.403Z,5.40
2019-04-19T01:32:57.202Z,5.45
2019-04-19T01:33:52.679Z,5.43
2019-04-19T01:34:57.865Z,5.42
2019-04-19T01:35:54.496Z,5.51
2019-04-19T01:36:53.111Z,5.48
2019-04-19T01:37:57.764Z,5.39
2019-04-19T01:39:04.931Z,5.36
2019-04-19T01:40:05.915Z,5.49
2019-04-19T01:41:09.879Z,5.45
2019-04-19T01:42:04.135Z,5.48
2019-04-19T01:43:06.158Z,5.40
2019-04-19T01:44:06.544Z,5.42
2019-04-19T01:45:04.091Z,5.39
2019-04-19T01:46:05.871Z,5.45
2019-04-19T01:47:04.971Z,5.39
2019-04-19T01:48:06.327Z,5.38
2019-04-19T01:49:05.626Z,5.33
2019-04-19T01:50:04.205Z,5.31
2019-04-19T01:51:10.473Z,5.31
2019-04-19T01:52:09.794Z,5.42
2019-04-19T01:53:15.927Z,5.40
2019-04-19T01:54:12.844Z,5.36
2019-04-19T01:55:02.730Z,5.42
2019-04-19T01:55:53.169Z,5.35
2019-04-19T01:56:57.085Z,5.45
2019-04-19T01:57:53.982Z,5.48
2019-04-19T01:58:55.806Z,5.42
2019-04-19T01:59:55.373Z,5.48
2019-04-19T02:00:55.439Z,5.36
2019-04-19T02:01:59.637Z,5.30
2019-04-19T02:02:54.791Z,5.27
2019-04-19T02:03:53.685Z,5.30
2019-04-19T02:04:52.971Z,5.20
2019-04-19T02:05:55.820Z,5.21
2019-04-19T02:06:51.624Z,5.15
2019-04-19T02:07:58.013Z,5.07
2019-04-19T02:08:55.058Z,5.13
2019-04-19T02:10:02.935Z,5.04
2019-04-19T02:10:58.717Z,5.12
2019-04-19T02:11:57.861Z,5.09
2019-04-19T02:13:02.598Z,5.04
2019-04-19T02:14:00.685Z,5.03
2019-04-19T02:14:58.587Z,5.06
2019-04-19T02:15:53.181Z,5.15
2019-04-19T02:16:55.887Z,5.13
2019-04-19T02:17:52.598Z,5.07
2019-04-19T02:18:54.158Z,5.12
2019-04-19T02:19:58.212Z,5.03
2019-04-19T02:20:51.942Z,4.96
2019-04-19T02:21:51.090Z,5.02
2019-04-19T02:22:55.162Z,4.92
2019-04-19T02:23:54.625Z,4.96
2019-04-19T02:24:53.737Z,4.94
2019-04-19T02:25:53.650Z,4.94
2019-04-19T02:26:54.297Z,4.97
2019-04-19T02:27:51.513Z,4.99
2019-04-19T02:28:51.277Z,5.04
2019-04-19T02:29:56.378Z,5.10
2019-04-19T02:31:10.700Z,5.06
2019-04-19T02:32:22.148Z,4.97
2019-04-19T02:33:15.436Z,4.99
2019-04-19T02:34:27.566Z,4.86
2019-04-19T02:35:11.290Z,4.86
2019-04-19T02:36:17.805Z,4.89
2019-04-19T02:37:23.138Z,4.94
2019-04-19T02:38:13.322Z,4.86
2019-04-19T02:39:24.095Z,4.97
2019-04-19T02:40:39.576Z,4.97
2019-04-19T02:41:34.706Z,5.06
2019-04-19T02:42:23.923Z,4.92
2019-04-19T02:43:36.205Z,5.03
2019-04-19T02:44:10.850Z,4.96
2019-04-19T02:47:34.679Z,5.02
2019-04-19T02:48:16.291Z,5.04
2019-04-19T02:49:20.054Z,5.04
2019-04-19T02:51:29.769Z,5.03
2019-04-19T02:52:25.855Z,5.07
2019-04-19T02:53:16.677Z,5.02
2019-04-19T02:54:17.772Z,5.00
2019-04-19T02:56:26.859Z,5.04
2019-04-19T02:57:23.101Z,4.99
2019-04-19T02:58:15.458Z,4.96
2019-04-19T02:59:21.257Z,4.92
2019-04-19T03:01:18.813Z,4.94
2019-04-19T03:02:26.722Z,4.97
2019-04-19T03:03:24.614Z,5.00
2019-04-19T03:04:24.066Z,4.94
2019-04-19T03:05:13.405Z,5.02
2019-04-19T03:06:07.560Z,4.96
2019-04-19T03:06:54.324Z,4.92
2019-04-19T03:07:50.329Z,4.97
2019-04-19T03:08:50.226Z,4.84
2019-04-19T03:09:50.444Z,4.97
2019-04-19T03:11:02.017Z,4.91
2019-04-19T03:12:00.840Z,4.91
2019-04-19T03:13:03.331Z,4.94
2019-04-19T03:14:03.187Z,4.84
2019-04-19T03:15:01.981Z,4.91
2019-04-19T03:16:05.473Z,4.88
2019-04-19T03:17:05.562Z,4.92
2019-04-19T03:18:16.516Z,4.89
2019-04-19T03:19:00.956Z,5.02
2019-04-19T03:20:06.714Z,5.17
2019-04-19T03:20:59.335Z,5.15
2019-04-19T03:22:00.654Z,5.12
2019-04-19T03:23:07.246Z,5.21
2019-04-19T03:24:08.800Z,5.30
2019-04-19T03:25:06.592Z,5.31
2019-04-19T03:25:59.190Z,5.38
2019-04-19T03:27:00.997Z,5.48
2019-04-19T03:27:59.792Z,5.35
2019-04-19T03:28:53.234Z,5.22
2019-04-19T03:29:55.690Z,5.27
2019-04-19T03:31:14.809Z,5.33
2019-04-19T03:32:22.662Z,5.27
2019-04-19T03:33:21.409Z,5.25
2019-04-19T03:34:16.538Z,5.25
2019-04-19T03:35:06.523Z,5.22
2019-04-19T03:36:05.397Z,5.24
2019-04-19T03:37:00.101Z,5.25
2019-04-19T03:38:07.149Z,5.24
2019-04-19T03:39:14.433Z,5.40
2019-04-19T03:40:13.124Z,5.40
2019-04-19T03:41:09.237Z,5.30
2019-04-19T03:43:10.381Z,5.22
2019-04-19T03:44:06.190Z,5.24
2019-04-19T03:45:08.219Z,5.21
2019-04-19T03:46:12.615Z,5.22
2019-04-19T03:47:21.471Z,5.20
2019-04-19T03:48:09.203Z,5.20
2019-04-19T03:49:08.688Z,5.22
2019-04-19T03:50:03.605Z,5.22
2019-04-19T03:51:18.522Z,5.21
2019-04-19T03:52:08.564Z,5.20
2019-04-19T03:53:07.169Z,5.17
2019-04-19T03:54:07.361Z,5.15
2019-04-19T03:55:09.072Z,5.12
2019-04-19T03:56:14.042Z,5.12
2019-04-19T03:57:00.264Z,5.15
2019-04-19T03:57:55.032Z,4.99
2019-04-19T03:58:48.279Z,5.06
2019-04-19T03:59:47.827Z,4.99
2019-04-19T04:00:47.757Z,5.04
2019-04-19T04:01:52.825Z,5.02
2019-04-19T04:02:49.346Z,4.99
2019-04-19T04:03:50.646Z,4.99
2019-04-19T04:04:54.497Z,5.00
2019-04-19T04:05:50.383Z,5.10
2019-04-19T04:06:48.753Z,5.07
2019-04-19T04:07:55.313Z,5.20
2019-04-19T04:08:53.630Z,5.12
2019-04-19T04:09:51.779Z,5.09
2019-04-19T04:10:48.599Z,5.12
2019-04-19T04:11:58.733Z,5.04
2019-04-19T04:12:56.658Z,5.10
2019-04-19T04:13:59.851Z,5.15
2019-04-19T04:15:02.679Z,5.13
2019-04-19T04:16:04.644Z,5.15
2019-04-19T04:16:50.700Z,5.15
2019-04-19T04:17:47.745Z,5.20
2019-04-19T04:18:47.137Z,5.24
2019-04-19T04:19:46.830Z,5.30
2019-04-19T04:20:52.209Z,5.45
2019-04-19T04:21:49.834Z,5.40
2019-04-19T04:22:48.252Z,5.49
2019-04-19T04:23:58.972Z,5.45
2019-04-19T04:24:58.313Z,5.46
2019-04-19T04:25:54.260Z,5.35
2019-04-19T04:26:56.932Z,5.40
2019-04-19T04:27:59.578Z,5.38
2019-04-19T04:28:58.640Z,5.25
2019-04-19T04:30:00.307Z,5.24
2019-04-19T04:31:28.123Z,5.31
2019-04-19T04:31:57.990Z,5.33
2019-04-19T04:32:57.013Z,5.33
2019-04-19T04:33:58.138Z,5.25
2019-04-19T04:34:56.730Z,5.30
2019-04-19T04:36:04.167Z,5.31
2019-04-19T04:37:01.770Z,5.33
2019-04-19T04:37:59.595Z,5.45
2019-04-19T04:38:47.854Z,5.40
2019-04-19T04:39:47.234Z,5.30
2019-04-19T04:40:46.572Z,5.30
2019-04-19T04:41:48.464Z,5.42
2019-04-19T04:43:01.380Z,5.35
2019-04-19T04:44:07.101Z,5.48
2019-04-19T04:45:14.975Z,5.46
2019-04-19T04:47:07.492Z,5.54
2019-04-19T04:48:02.679Z,5.71
2019-04-19T04:49:04.793Z,5.67
2019-04-19T04:50:05.253Z,5.72
2019-04-19T04:51:05.701Z,5.68
2019-04-19T04:51:58.909Z,5.68
2019-04-19T04:52:47.767Z,5.85
2019-04-19T04:53:46.964Z,5.81
2019-04-19T04:54:46.666Z,5.78
2019-04-19T04:55:53.558Z,5.79
2019-04-19T04:56:56.760Z,5.85
2019-04-19T04:57:53.831Z,5.83
2019-04-19T04:58:47.800Z,6.03
2019-04-19T04:59:50.349Z,6.17
2019-04-19T05:00:55.005Z,6.25
2019-04-19T05:01:54.943Z,6.31
2019-04-19T05:03:02.135Z,6.46
2019-04-19T05:04:02.127Z,6.66
2019-04-19T05:05:08.674Z,6.80
2019-04-19T05:06:08.149Z,6.89
2019-04-19T05:07:04.627Z,6.92
2019-04-19T05:08:11.325Z,7.06
2019-04-19T05:08:59.924Z,7.23
2019-04-19T05:10:08.522Z,7.30
2019-04-19T05:11:06.443Z,7.32
2019-04-19T05:12:07.654Z,7.49
2019-04-19T05:14:05.897Z,7.61
2019-04-19T05:14:57.927Z,7.61
2019-04-19T05:16:06.883Z,7.64
2019-04-19T05:17:22.771Z,7.75
2019-04-19T05:18:13.801Z,7.75
2019-04-19T05:18:58.474Z,7.82
2019-04-19T05:20:03.703Z,7.85
2019-04-19T05:20:55.743Z,7.89
2019-04-19T05:22:08.704Z,7.97
2019-04-19T05:23:06.417Z,8.08
2019-04-19T05:24:05.083Z,8.28
2019-04-19T05:25:12.512Z,8.45
2019-04-19T05:26:11.994Z,8.77
2019-04-19T05:27:11.793Z,9.20
2019-04-19T05:28:03.900Z,9.71
2019-04-19T05:29:00.674Z,10.51
2019-04-19T05:29:49.442Z,11.15
2019-04-19T05:30:51.887Z,11.70
2019-04-19T05:31:49.783Z,12.12
2019-04-19T05:32:59.444Z,12.72
2019-04-19T05:34:08.206Z,13.04
2019-04-19T05:35:00.251Z,13.45
2019-04-19T05:36:04.231Z,13.95
2019-04-19T05:37:02.495Z,14.14
2019-04-19T05:38:00.875Z,14.64
2019-04-19T05:39:06.014Z,14.88
2019-04-19T05:40:04.822Z,15.07
2019-04-19T05:40:57.186Z,15.49
2019-04-19T05:42:00.040Z,15.43
2019-04-19T05:42:56.513Z,15.54
2019-04-19T05:44:15.280Z,15.64
2019-04-19T05:45:20.386Z,15.71
2019-04-19T05:46:13.718Z,15.78
2019-04-19T05:47:05.961Z,15.74
2019-04-19T05:47:54.434Z,15.87
2019-04-19T05:48:52.510Z,16.31
2019-04-19T05:50:00.833Z,16.42
2019-04-19T05:51:09.363Z,16.33
2019-04-19T05:52:00.714Z,16.20
2019-04-19T05:53:00.177Z,16.31
2019-04-19T05:53:49.624Z,16.48
2019-04-19T05:54:45.090Z,16.73
2019-04-19T05:55:44.099Z,16.96
2019-04-19T05:56:50.235Z,17.14
2019-04-19T05:57:56.825Z,17.43
2019-04-19T05:58:55.760Z,17.37
2019-04-19T05:59:53.957Z,17.16
2019-04-19T06:00:58.157Z,17.16
2019-04-19T06:02:00.598Z,17.31
2019-04-19T06:02:58.281Z,17.48
2019-04-19T06:04:02.620Z,17.30
2019-04-19T06:05:10.093Z,17.49
2019-04-19T06:06:10.847Z,16.96
2019-04-19T06:07:05.068Z,17.01
2019-04-19T06:07:56.064Z,17.22
2019-04-19T06:08:44.464Z,17.16
2019-04-19T06:09:43.789Z,17.23
2019-04-19T06:10:52.291Z,17.62
2019-04-19T06:11:45.029Z,17.64
2019-04-19T06:12:44.935Z,17.64
2019-04-19T06:13:51.953Z,17.96
2019-04-19T06:15:10.395Z,17.59
2019-04-19T06:16:06.922Z,17.78
2019-04-19T06:16:55.061Z,17.33
2019-04-19T06:18:00.435Z,17.58
2019-04-19T06:18:55.022Z,18.18
2019-04-19T06:20:03.218Z,18.37
2019-04-19T06:21:04.551Z,18.58
2019-04-19T06:21:57.226Z,18.54
2019-04-19T06:23:03.917Z,19.04
2019-04-19T06:24:06.286Z,19.19
2019-04-19T06:25:01.058Z,19.83
2019-04-19T06:26:27.327Z,20.08
2019-04-19T06:28:12.831Z,19.94
2019-04-19T06:29:06.670Z,19.31
2019-04-19T06:30:10.199Z,19.55
2019-04-19T06:31:03.149Z,19.63
2019-04-19T06:32:07.417Z,19.26
2019-04-19T06:33:02.356Z,18.90
2019-04-19T06:34:03.697Z,18.76
2019-04-19T06:34:59.165Z,19.21
2019-04-19T06:35:51.486Z,19.46
2019-04-19T06:36:57.635Z,19.19
2019-04-19T06:37:43.878Z,19.56
2019-04-19T06:38:44.412Z,19.55
2019-04-19T06:39:43.726Z,19.63
2019-04-19T06:40:52.491Z,19.43
2019-04-19T06:41:50.730Z,19.25
2019-04-19T06:42:49.876Z,19.40
2019-04-19T06:43:52.088Z,19.80
2019-04-19T06:45:03.735Z,20.28
2019-04-19T06:45:59.782Z,20.74
2019-04-19T06:46:58.464Z,20.85
2019-04-19T06:47:49.756Z,21.03
2019-04-19T06:48:50.080Z,21.03
2019-04-19T06:49:43.671Z,20.69
2019-04-19T06:50:46.253Z,20.20
2019-04-19T06:51:53.908Z,20.17
2019-04-19T06:52:42.930Z,19.95
2019-04-19T06:53:50.267Z,19.96
2019-04-19T06:54:44.574Z,19.78
2019-04-19T06:55:48.022Z,20.02
2019-04-19T06:56:55.703Z,20.02
2019-04-19T06:57:53.548Z,19.69
2019-04-19T06:58:53.024Z,19.95
2019-04-19T06:59:57.767Z,20.05
2019-04-19T07:00:57.315Z,19.63
2019-04-19T07:01:49.260Z,19.95
2019-04-19T07:02:43.478Z,20.16
2019-04-19T07:03:42.832Z,20.13
2019-04-19T07:04:52.361Z,20.02
2019-04-19T07:05:57.046Z,20.69
2019-04-19T07:07:02.724Z,20.11
2019-04-19T07:08:14.354Z,19.98
2019-04-19T07:09:07.848Z,20.23
2019-04-19T07:10:09.019Z,20.18
2019-04-19T07:11:08.395Z,20.35
2019-04-19T07:12:20.999Z,20.26
2019-04-19T07:13:00.828Z,20.80
2019-04-19T07:13:53.107Z,21.22
2019-04-19T07:15:05.368Z,21.13
2019-04-19T07:16:10.340Z,21.71
2019-04-19T07:17:04.519Z,21.96
2019-04-19T07:17:58.561Z,21.19
2019-04-19T07:18:56.180Z,20.52
2019-04-19T07:19:57.483Z,21.07
2019-04-19T07:21:04.781Z,21.28
2019-04-19T07:22:00.700Z,21.42
2019-04-19T07:22:57.849Z,21.82
2019-04-19T07:24:03.955Z,21.99
2019-04-19T07:25:07.844Z,21.82
2019-04-19T07:26:04.172Z,22.05
2019-04-19T07:27:03.205Z,22.68
2019-04-19T07:27:53.056Z,23.05
2019-04-19T07:28:43.416Z,23.01
2019-04-19T07:29:45.287Z,22.33
2019-04-19T07:30:49.202Z,22.64
2019-04-19T07:31:43.051Z,22.86
2019-04-19T07:32:48.358Z,22.85
2019-04-19T07:33:53.803Z,22.83
2019-04-19T07:34:57.066Z,23.05
2019-04-19T07:36:05.136Z,22.68
2019-04-19T07:37:03.951Z,22.28
2019-04-19T07:37:58.756Z,22.40
2019-04-19T07:39:05.566Z,22.43
2019-04-19T07:40:09.632Z,22.10
2019-04-19T07:41:02.788Z,21.84
2019-04-19T07:42:03.523Z,22.25
2019-04-19T07:43:02.747Z,22.90
2019-04-19T07:43:55.925Z,22.72
2019-04-19T07:44:49.007Z,22.47
2019-04-19T07:46:02.899Z,22.37
2019-04-19T07:46:58.116Z,21.79
2019-04-19T07:47:51.335Z,21.61
2019-04-19T07:48:42.779Z,21.69
2019-04-19T07:49:53.347Z,21.77
2019-04-19T07:50:51.581Z,21.72
2019-04-19T07:51:52.047Z,22.07
2019-04-19T07:52:53.007Z,22.49
2019-04-19T07:53:46.318Z,22.88
2019-04-19T07:54:42.384Z,22.61
2019-04-19T07:55:55.385Z,22.37
2019-04-19T07:56:54.461Z,22.39
2019-04-19T07:58:14.804Z,22.40
2019-04-19T07:59:08.049Z,22.43
2019-04-19T08:00:15.174Z,22.65
2019-04-19T08:01:24.374Z,22.76
2019-04-19T08:03:11.267Z,23.57
2019-04-19T08:04:27.422Z,23.23
2019-04-19T08:05:14.082Z,23.32
2019-04-19T08:06:08.384Z,23.51
2019-04-19T08:10:18.920Z,24.40
2019-04-19T08:12:12.657Z,23.80
2019-04-19T08:15:19.873Z,23.93
2019-04-19T08:18:02.931Z,24.08
2019-04-19T08:27:49.157Z,23.84
2019-04-19T08:28:50.177Z,24.13
2019-04-19T08:29:51.296Z,23.73
2019-04-19T08:30:47.813Z,23.55
2019-04-19T08:31:42.218Z,23.38
2019-04-19T08:32:41.215Z,23.75
2019-04-19T08:33:41.671Z,24.30
2019-04-19T08:34:59.503Z,24.61
2019-04-19T08:35:47.004Z,24.81
2019-04-19T08:36:51.159Z,24.85
2019-04-19T08:37:45.059Z,24.65
2019-04-19T08:39:05.395Z,24.50
2019-04-19T08:39:56.945Z,24.62
2019-04-19T08:40:59.321Z,24.83
2019-04-19T08:42:06.707Z,24.83
2019-04-19T08:42:54.431Z,24.71
2019-04-19T08:43:54.715Z,24.78
2019-04-19T08:44:51.278Z,25.00
2019-04-19T08:45:42.214Z,25.42
2019-04-19T08:46:41.005Z,25.76
2019-04-19T08:47:46.324Z,25.21
2019-04-19T08:48:47.821Z,25.61
2019-04-19T08:49:44.890Z,25.15
2019-04-19T08:50:47.394Z,25.27
2019-04-19T08:51:43.259Z,25.05
2019-04-19T08:52:42.101Z,25.57
2019-04-19T08:53:54.504Z,25.58
2019-04-19T08:55:06.216Z,25.65
2019-04-19T08:56:00.572Z,24.98
2019-04-19T08:56:49.619Z,25.58
2019-04-19T08:57:45.233Z,25.39
2019-04-19T08:58:54.361Z,25.30
2019-04-19T09:00:01.158Z,25.35
2019-04-19T09:01:06.165Z,25.45
2019-04-19T09:02:00.882Z,25.95
2019-04-19T09:02:54.389Z,26.07
2019-04-19T09:04:06.863Z,25.60
2019-04-19T09:05:00.251Z,25.70
2019-04-19T09:06:10.963Z,25.42
2019-04-19T09:07:59.474Z,24.61
2019-04-19T09:08:54.688Z,24.40
2019-04-19T09:10:17.855Z,24.64
2019-04-19T09:11:02.675Z,24.91
2019-04-19T09:12:02.634Z,24.85
2019-04-19T09:13:12.182Z,25.20
2019-04-19T09:14:02.550Z,25.23
2019-04-19T09:15:01.037Z,25.47
2019-04-19T09:16:01.726Z,25.72
2019-04-19T09:17:07.527Z,24.77
2019-04-19T09:19:03.634Z,24.65
2019-04-19T09:20:15.915Z,24.69
2019-04-19T09:20:58.943Z,24.83
2019-04-19T09:21:52.195Z,25.06
2019-04-19T09:22:54.762Z,24.73
2019-04-19T09:23:51.691Z,24.83
2019-04-19T09:24:50.290Z,24.81
2019-04-19T09:25:54.990Z,24.87
2019-04-19T09:26:55.301Z,25.32
2019-04-19T09:28:00.107Z,25.03
2019-04-19T09:29:14.275Z,25.39
2019-04-19T09:29:59.285Z,25.20
2019-04-19T09:30:55.844Z,25.32
2019-04-19T09:31:49.105Z,25.77
2019-04-19T09:32:41.747Z,26.52
2019-04-19T09:33:42.743Z,27.02
2019-04-19T09:34:48.866Z,27.18
2019-04-19T09:35:52.534Z,26.97
2019-04-19T09:36:49.133Z,26.35
2019-04-19T09:37:54.721Z,26.13
2019-04-19T09:38:59.782Z,26.28
2019-04-19T09:39:49.927Z,25.80
2019-04-19T09:40:48.456Z,25.47
2019-04-19T09:41:45.394Z,25.65
2019-04-19T09:42:51.042Z,25.62
2019-04-19T09:43:53.607Z,25.90
2019-04-19T09:44:47.970Z,26.37
2019-04-19T09:45:40.435Z,25.85
2019-04-19T09:46:40.357Z,25.76
2019-04-19T09:47:40.085Z,25.98
2019-04-19T09:48:58.497Z,26.29
2019-04-19T09:49:53.246Z,26.48
2019-04-19T09:50:56.704Z,26.32
2019-04-19T09:51:55.534Z,26.44
2019-04-19T09:53:01.640Z,26.67
2019-04-19T09:54:07.671Z,26.84
2019-04-19T09:55:03.318Z,26.81
2019-04-19T09:56:05.067Z,27.25
2019-04-19T09:56:53.765Z,27.12
2019-04-19T09:58:00.625Z,27.07
2019-04-19T09:58:54.040Z,27.21
2019-04-19T09:59:43.021Z,27.22
2019-04-19T10:00:40.939Z,27.27
2019-04-19T10:01:45.759Z,27.36
2019-04-19T10:02:46.839Z,27.36
2019-04-19T10:03:45.839Z,27.31
2019-04-19T10:04:40.050Z,27.51
2019-04-19T10:05:41.069Z,27.29
2019-04-19T10:06:40.646Z,27.04
2019-04-19T10:07:40.869Z,27.03
2019-04-19T10:08:40.173Z,27.02
2019-04-19T10:09:40.747Z,26.95
2019-04-19T10:10:41.107Z,27.06
2019-04-19T10:11:41.119Z,27.31
2019-04-19T10:12:39.903Z,27.13
2019-04-19T10:13:39.947Z,26.85
2019-04-19T10:14:39.710Z,26.47
2019-04-19T10:15:40.531Z,26.17
2019-04-19T10:16:40.093Z,25.77
2019-04-19T10:17:40.621Z,26.21
2019-04-19T10:18:50.214Z,26.02
2019-04-19T10:19:39.624Z,26.60
2019-04-19T10:20:40.635Z,26.85
2019-04-19T10:21:40.815Z,26.72
2019-04-19T10:22:39.583Z,27.14
2019-04-19T10:23:39.565Z,26.94
2019-04-19T10:24:39.548Z,26.77
2019-04-19T10:25:46.318Z,26.29
2019-04-19T10:26:40.408Z,26.29
2019-04-19T10:27:39.690Z,26.75
2019-04-19T10:28:40.035Z,26.99
2019-04-19T10:29:43.504Z,27.13
2019-04-19T10:30:40.573Z,27.18
2019-04-19T10:31:39.723Z,26.88
2019-04-19T10:32:40.321Z,26.70
2019-04-19T10:33:48.060Z,26.70
2019-04-19T10:34:40.620Z,26.43
2019-04-19T10:35:39.388Z,26.01
2019-04-19T10:36:40.524Z,26.45
2019-04-19T10:37:39.915Z,26.75
2019-04-19T10:38:40.009Z,27.07
2019-04-19T10:39:39.616Z,26.97
2019-04-19T10:40:39.612Z,27.24
2019-04-19T10:41:40.487Z,27.24
2019-04-19T10:42:39.286Z,27.60
2019-04-19T10:43:39.269Z,27.03
2019-04-19T10:44:40.203Z,27.04
2019-04-19T10:45:39.242Z,27.36
2019-04-19T10:46:39.227Z,27.72
2019-04-19T10:47:39.962Z,27.57
2019-04-19T10:48:39.195Z,27.75
2019-04-19T10:49:46.276Z,27.60
2019-04-19T10:50:44.320Z,27.70
2019-04-19T10:51:39.697Z,27.31
2019-04-19T10:52:39.471Z,26.73
2019-04-19T10:53:39.126Z,26.43
2019-04-19T10:54:39.110Z,26.82
2019-04-19T10:55:40.320Z,26.73
2019-04-19T10:56:39.079Z,27.19
2019-04-19T10:57:39.130Z,27.03
2019-04-19T10:58:39.050Z,27.32
2019-04-19T10:59:39.037Z,27.34
2019-04-19T11:00:39.719Z,27.70
2019-04-19T11:01:39.116Z,27.17
2019-04-19T11:02:40.104Z,27.04
2019-04-19T11:03:39.099Z,26.97
2019-04-19T11:04:38.963Z,26.92
2019-04-19T11:05:38.948Z,27.12
2019-04-19T11:06:39.717Z,27.10
2019-04-19T11:07:40.289Z,27.31
2019-04-19T11:08:38.903Z,27.62
2019-04-19T11:09:39.646Z,27.74
2019-04-19T11:10:39.994Z,27.44
2019-04-19T11:11:39.486Z,27.66
2019-04-19T11:12:38.851Z,27.92
2019-04-19T11:13:40.151Z,27.44
2019-04-19T11:14:40.005Z,27.10
2019-04-19T11:15:38.799Z,27.04
2019-04-19T11:16:39.556Z,26.85
2019-04-19T11:17:38.770Z,26.84
2019-04-19T11:18:39.440Z,27.03
2019-04-19T11:19:52.112Z,27.43
2019-04-19T11:20:45.491Z,27.32
2019-04-19T11:21:38.710Z,27.10
2019-04-19T11:22:39.833Z,27.27
2019-04-19T11:23:39.776Z,27.31
2019-04-19T11:24:39.188Z,27.44
2019-04-19T11:25:39.892Z,27.67
2019-04-19T11:26:38.992Z,28.06
2019-04-19T11:27:39.408Z,27.94
2019-04-19T11:28:38.950Z,27.47
2019-04-19T11:29:38.668Z,27.46
2019-04-19T11:30:39.051Z,27.63
2019-04-19T11:31:39.509Z,27.99
2019-04-19T11:32:39.967Z,28.17
2019-04-19T11:33:39.176Z,27.96
2019-04-19T11:34:38.517Z,27.43
2019-04-19T11:35:39.342Z,27.34
2019-04-19T11:36:39.718Z,27.31
2019-04-19T11:37:39.271Z,27.63
2019-04-19T11:38:38.799Z,27.55
2019-04-19T11:39:39.148Z,27.78
2019-04-19T11:40:39.448Z,27.82
2019-04-19T11:41:38.897Z,28.27
2019-04-19T11:42:39.339Z,28.21
2019-04-19T11:43:38.382Z,28.44
2019-04-19T11:44:39.499Z,28.77
2019-04-19T11:45:38.353Z,28.55
2019-04-19T11:46:38.339Z,27.97
2019-04-19T11:47:38.323Z,27.97
2019-04-19T11:48:39.550Z,27.97
2019-04-19T11:49:41.970Z,28.00
2019-04-19T11:50:38.279Z,28.04
2019-04-19T11:51:39.489Z,28.43
2019-04-19T11:52:38.250Z,28.18
2019-04-19T11:53:38.583Z,27.94
2019-04-19T11:54:38.752Z,28.24
2019-04-19T11:55:38.444Z,28.04
2019-04-19T11:56:46.003Z,27.81
2019-04-19T11:57:38.750Z,27.60
2019-04-19T11:58:38.427Z,27.55
2019-04-19T11:59:44.450Z,27.92
2019-04-19T12:00:38.131Z,27.92
2019-04-19T12:01:38.118Z,27.82
2019-04-19T12:02:38.104Z,27.43
2019-04-19T12:03:40.280Z,27.32
2019-04-19T12:04:38.073Z,27.37
2019-04-19T12:05:38.057Z,27.31
2019-04-19T12:06:38.551Z,27.43
2019-04-19T12:07:38.837Z,27.59
2019-04-19T12:08:39.771Z,27.92
2019-04-19T12:09:38.585Z,28.54
2019-04-19T12:10:38.641Z,28.90
2019-04-19T12:11:38.079Z,28.98
2019-04-19T12:12:39.090Z,28.78
2019-04-19T12:13:40.016Z,28.44
2019-04-19T12:14:37.922Z,28.44
2019-04-19T12:15:37.953Z,28.56
2019-04-19T12:16:39.038Z,28.80
2019-04-19T12:17:37.877Z,28.40
2019-04-19T12:18:40.082Z,28.19
2019-04-19T12:19:46.374Z,28.31
2019-04-19T12:20:37.835Z,28.31
2019-04-19T12:21:39.086Z,28.43
2019-04-19T12:22:37.988Z,28.29
2019-04-19T12:23:39.004Z,28.22
2019-04-19T12:24:38.445Z,28.48
2019-04-19T12:25:37.763Z,28.48
2019-04-19T12:26:37.850Z,28.93
2019-04-19T12:27:37.729Z,28.43
2019-04-19T12:28:37.712Z,28.00
2019-04-19T12:29:43.108Z,28.25
2019-04-19T12:30:44.175Z,28.22
2019-04-19T12:31:37.670Z,27.43
2019-04-19T12:32:37.655Z,27.34
2019-04-19T12:33:37.639Z,27.50
2019-04-19T12:34:38.081Z,28.04
2019-04-19T12:35:37.611Z,28.09
2019-04-19T12:36:37.594Z,28.07
2019-04-19T12:37:37.581Z,27.96
2019-04-19T12:38:37.912Z,27.82
2019-04-19T12:39:38.915Z,27.62
2019-04-19T12:40:38.076Z,27.85
2019-04-19T12:41:37.738Z,27.47
2019-04-19T12:42:38.066Z,27.67
2019-04-19T12:43:38.156Z,27.66
2019-04-19T12:44:39.005Z,27.93
2019-04-19T12:45:37.768Z,28.14
2019-04-19T12:46:37.442Z,28.06
2019-04-19T12:47:38.305Z,27.90
2019-04-19T12:48:37.610Z,28.14
2019-04-19T12:49:47.837Z,28.07
2019-04-19T12:50:38.853Z,28.59
2019-04-19T12:51:37.366Z,29.33
2019-04-19T12:52:37.963Z,28.46
2019-04-19T12:53:37.336Z,28.73
2019-04-19T12:54:38.130Z,28.41
2019-04-19T12:55:37.849Z,28.21
2019-04-19T12:56:38.063Z,28.40
2019-04-19T12:57:39.095Z,28.44
2019-04-19T12:58:37.884Z,28.78
2019-04-19T12:59:38.061Z,28.92
2019-04-19T13:00:38.181Z,28.70
2019-04-19T13:01:37.682Z,28.07
2019-04-19T13:02:37.858Z,28.15
2019-04-19T13:03:38.042Z,27.84
2019-04-19T13:04:38.209Z,27.47
2019-04-19T13:05:37.446Z,27.36
2019-04-19T13:06:37.901Z,27.22
2019-04-19T13:07:37.140Z,27.32
2019-04-19T13:08:37.106Z,27.28
2019-04-19T13:09:37.310Z,27.49
2019-04-19T13:10:37.080Z,27.96
2019-04-19T13:11:37.062Z,27.87
2019-04-19T13:12:37.258Z,27.97
2019-04-19T13:13:37.030Z,28.21
2019-04-19T13:14:37.668Z,28.77
2019-04-19T13:15:37.006Z,28.64
2019-04-19T13:16:36.985Z,28.68
2019-04-19T13:17:38.183Z,28.62
2019-04-19T13:18:38.265Z,28.80
2019-04-19T13:19:37.451Z,28.85
2019-04-19T13:20:38.718Z,28.24
2019-04-19T13:21:36.909Z,28.21
2019-04-19T13:22:36.899Z,28.41
2019-04-19T13:23:38.180Z,28.52
2019-04-19T13:24:36.862Z,28.19
2019-04-19T13:25:37.380Z,28.71
2019-04-19T13:26:36.832Z,28.96
2019-04-19T13:27:44.108Z,29.02
2019-04-19T13:28:37.528Z,29.19
2019-04-19T13:29:37.616Z,29.37
2019-04-19T13:30:44.335Z,29.14
2019-04-19T13:31:36.756Z,28.80
2019-04-19T13:32:37.745Z,28.56